Flight Track Log - Related Links

Times and Time Zones

All times are in EDT time to prevent confusion due to time zone crossing. See the N484AS flight status page for this flight to view local times or setup timezone preferences in your user account.

Time Position Orientation Groundspeed Altitude Reporting Facility
EDT Latitude Longitude Course Direction KTS MPH feet Rate Location/Type
Thu 10:27:18 PM 59.7000 -151.3333 26° Northeast 140 161 4,400  Level Anchorage Center
Thu 10:28:18 PM 59.7333 -151.3167 14° North 140 161 6,200 1,785 Climbing Anchorage Center
Thu 10:29:19 PM 59.7667 -151.2833 27° Northeast 120 138 8,000 1,686 Climbing Anchorage Center
Thu 10:30:19 PM 59.8167 -151.2500 19° North 160 184 9,600 1,750 Climbing Anchorage Center
Thu 10:31:00 PM 59.9448 -151.1991 25° Northeast  Level Estimated
Thu 10:31:19 PM 59.8500 -151.2167 27° Northeast 160 184 11,500  Level Anchorage Center
Thu 10:32:00 PM 59.9943 -151.1510 26° Northeast  Level FlightAware Approximate
Thu 10:32:20 PM 59.8833 -151.1833 27° Northeast 160 184 12,900  Level Anchorage Center
Thu 10:33:20 PM 59.9333 -151.1500 18° North 160 184 14,700 1,550 Climbing Anchorage Center
Thu 10:34:20 PM 59.9667 -151.1000 37° Northeast 170 196 16,000 645 Climbing Anchorage Center
Thu 10:35:21 PM 60.0167 -151.0667 18° North 210 242 16,000 50 Level Anchorage Center
Thu 10:36:21 PM 60.0667 -151.0167 27° Northeast 220 253 16,100  Climbing Anchorage Center
Thu 10:37:21 PM 60.1333 -150.9667 20° North 220 253 16,000 -50 Descending Anchorage Center
Thu 10:38:21 PM 60.1833 -150.9000 34° Northeast 220 253 16,000  Level Anchorage Center
Thu 10:39:22 PM 60.2500 -150.8500 20° North 220 253 16,000  Level Anchorage Center
Thu 10:40:22 PM 60.3000 -150.8000 26° Northeast 220 253 16,000  Level Anchorage Center
Thu 10:41:22 PM 60.3500 -150.7500 26° Northeast 220 253 16,000  Level Anchorage Center
Thu 10:42:23 PM 60.4167 -150.7000 20° North 220 253 16,000  Level Anchorage Center
Thu 10:43:23 PM 60.4667 -150.6500 26° Northeast 220 253 16,000 -595 Level Anchorage Center
Thu 10:44:24 PM 60.5333 -150.5833 26° Northeast 230 265 14,800 -1,240 Descending Anchorage Center
Thu 10:45:24 PM 60.5833 -150.5333 26° Northeast 230 265 13,500 -1,300 Descending Anchorage Center
Thu 10:47:00 PM 60.6699 -150.4862 24° Northeast  Level FlightAware Approximate
Thu 10:54:00 PM 61.0148 -150.1357 31° Northeast  Level FlightAware Approximate
Thu 10:55:00 PM 61.0659 -150.0940 21° North  Level FlightAware Approximate
Thu 10:56:00 PM 61.1158 -150.0469 31° Northeast  Level FlightAware Approximate
Thu 10:57:00 PM 61.1630 -149.9880 31° Northeast  Level FlightAware Approximate
Thu 10:58:00 PM 61.1667 -149.9833 31° Northeast  Level FlightAware Approximate
Thu 10:59:00 PM 61.1741 -149.9982 31° Northeast  Level Estimated
Thu 11:00:00 PM 61.1741 -149.9982 31° Northeast  Level Estimated
Thu 11:01:00 PM 61.1741 -149.9982 31° Northeast  Level Estimated
Thu 11:02:00 PM 61.1741 -149.9982 31° Northeast  Level Estimated
Thu 11:03:00 PM 61.1741 -149.9982 31° Northeast  Level Estimated
Thu 11:04:00 PM 61.1741 -149.9982 31° Northeast  Level Estimated
Thu 11:05:00 PM 61.1741 -149.9982 31° Northeast  Level Estimated
Thu 11:06:00 PM 61.1741 -149.9982 31° Northeast  Level Estimated
Thu 11:07:00 PM 61.1741 -149.9982 31° Northeast  Level Estimated
Thu 11:08:00 PM 61.1741 -149.9982 31° Northeast  Level Estimated
Thu 11:09:00 PM 61.1741 -149.9982 31° Northeast  Level Estimated
Thu 11:10:00 PM 61.1741 -149.9982 31° Northeast  Level Estimated
Thu 11:11:00 PM 61.1741 -149.9982 31° Northeast  Level Estimated

Login

Don't have an account? Register now (free) for customized features, flight alerts, and more!